Time;durP1;ratioP1;P1;durP2;ratioP2;P2;SDS_P1;SDS_P2;PMS_P1;PMS_P2;Temp;Humidity;BMP_temperature;BMP_pressure;BME280_temperature;BME280_humidity;BME280_pressure;Samples;Min_cycle;Max_cycle;Signal;HPM_P1;HPM_P2
2023/05/29 00:00:16;;;;;;;1999.90;999.90;;;;;;;19.74;46.93;102522.22;5049988;28;20400;-70
2023/05/29 00:02:44;;;;;;;1999.90;999.90;;;;;;;20.09;46.37;102523.22;5050676;28;20074;-70
2023/05/29 00:05:12;;;;;;;1999.90;999.90;;;;;;;19.70;47.05;102520.53;5050614;28;20024;-70
2023/05/29 00:07:39;;;;;;;1999.90;999.90;;;;;;;19.31;47.48;102523.09;5052273;28;20025;-69
2023/05/29 00:10:06;;;;;;;1999.90;999.90;;;;;;;19.62;46.52;102522.47;5050471;28;20081;-70
2023/05/29 00:12:31;;;;;;;1999.90;999.90;;;;;;;19.98;45.51;102519.94;5051376;28;20029;-70
2023/05/29 00:14:57;;;;;;;1999.90;999.90;;;;;;;20.40;44.87;102514.53;5051530;28;20035;-70
2023/05/29 00:17:23;;;;;;;1999.90;999.90;;;;;;;20.24;45.68;102521.13;5052031;28;20027;-69
2023/05/29 00:19:49;;;;;;;1999.90;999.90;;;;;;;21.16;43.59;102513.44;5050722;28;20070;-69
2023/05/29 00:22:15;;;;;;;1999.90;999.90;;;;;;;21.19;43.11;102521.31;5050663;28;20108;-69
2023/05/29 00:24:43;;;;;;;1999.90;999.90;;;;;;;20.58;43.43;102520.25;5051846;28;20468;-69
2023/05/29 00:27:09;;;;;;;1999.90;999.90;;;;;;;19.74;45.62;102516.91;5049918;28;20366;-69
2023/05/29 00:29:36;;;;;;;1999.90;999.90;;;;;;;21.42;42.74;102514.47;5051845;28;20031;-69
2023/05/29 00:32:02;;;;;;;1999.90;999.90;;;;;;;21.21;43.80;102520.41;5049892;28;20033;-74
2023/05/29 00:34:27;;;;;;;1999.90;999.90;;;;;;;21.65;42.67;102521.81;5049682;28;20032;-69
2023/05/29 00:36:54;;;;;;;1999.90;999.90;;;;;;;21.72;42.30;102524.28;5050074;28;20390;-70
2023/05/29 00:39:20;;;;;;;1999.90;999.90;;;;;;;21.38;42.89;102528.78;5050225;28;20465;-69
2023/05/29 00:41:45;;;;;;;1999.90;999.90;;;;;;;20.84;44.19;102538.22;5049087;28;20111;-69
2023/05/29 00:44:11;;;;;;;1999.90;999.90;;;;;;;20.58;44.73;102537.09;5051785;28;20400;-69
2023/05/29 00:46:36;;;;;;;1999.90;999.90;;;;;;;21.04;43.06;102543.00;5050313;28;20385;-69
2023/05/29 00:49:03;;;;;;;1999.90;999.90;;;;;;;21.39;41.90;102541.16;5049117;28;20374;-69
2023/05/29 00:51:31;;;;;;;1999.90;999.90;;;;;;;20.64;44.30;102552.88;5050175;28;20025;-69
2023/05/29 00:53:57;;;;;;;1999.90;999.90;;;;;;;21.24;42.13;102562.84;5049697;28;20151;-69
2023/05/29 00:56:23;;;;;;;1999.90;999.90;;;;;;;21.26;42.36;102561.91;5049548;28;20423;-69
2023/05/29 00:58:51;;;;;;;1999.90;999.90;;;;;;;21.38;42.58;102555.38;5050736;28;20049;-69
2023/05/29 01:01:21;;;;;;;1999.90;999.90;;;;;;;20.74;42.59;102560.63;5050119;28;20029;-70
2023/05/29 01:03:48;;;;;;;1999.90;999.90;;;;;;;20.62;42.93;102561.78;5049930;28;20035;-69
2023/05/29 01:06:14;;;;;;;1999.90;999.90;;;;;;;19.94;45.17;102556.28;5049078;28;20089;-69
2023/05/29 01:08:39;;;;;;;1999.90;999.90;;;;;;;20.38;43.17;102561.47;5049033;28;20029;-69
2023/05/29 01:11:13;;;;;;;1999.90;999.90;;;;;;;20.09;44.54;102560.38;5050676;28;20036;-69
2023/05/29 01:13:44;;;;;;;1999.90;999.90;;;;;;;19.49;45.51;102564.28;5049623;28;20060;-69
2023/05/29 01:16:26;;;;;;;1999.90;999.90;;;;;;;21.07;42.68;102566.84;5048954;28;20056;-68
2023/05/29 01:19:00;;;;;;;1999.90;999.90;;;;;;;20.46;43.00;102564.81;5050419;28;20025;-69
2023/05/29 01:21:32;;;;;;;1999.90;999.90;;;;;;;20.14;43.64;102566.47;5049788;28;20559;-69
2023/05/29 01:24:08;;;;;;;1999.90;999.90;;;;;;;19.18;46.71;102575.50;5049577;28;20037;-69
2023/05/29 01:26:58;;;;;;;1999.90;999.90;;;;;;;19.88;43.78;102566.16;5049960;28;20033;-69
2023/05/29 01:29:27;;;;;;;1999.90;999.90;;;;;;;20.33;44.06;102577.53;5050956;28;20033;-69
2023/05/29 01:31:54;;;;;;;1999.90;999.90;;;;;;;20.02;43.55;102572.03;5048249;28;20028;-69
2023/05/29 01:34:20;;;;;;;1999.90;999.90;;;;;;;19.43;44.15;102575.00;5049165;28;20035;-70
2023/05/29 01:36:46;;;;;;;1999.90;999.90;;;;;;;19.10;45.05;102593.31;5048093;28;20029;-68
2023/05/29 01:39:12;;;;;;;1999.90;999.90;;;;;;;19.99;44.53;102580.09;5049410;28;20035;-69
2023/05/29 01:41:38;;;;;;;1999.90;999.90;;;;;;;20.58;42.47;102573.38;5049176;28;20029;-69
2023/05/29 01:44:08;;;;;;;1999.90;999.90;;;;;;;20.21;42.97;102576.91;5048083;28;20040;-69
2023/05/29 01:46:35;;;;;;;1999.90;999.90;;;;;;;19.78;43.92;102582.25;5050367;28;20477;-69
2023/05/29 01:49:01;;;;;;;1999.90;999.90;;;;;;;20.18;43.01;102577.84;5048305;28;20404;-70
2023/05/29 01:51:26;;;;;;;1999.90;999.90;;;;;;;20.45;41.94;102576.34;5048320;28;20139;-69
2023/05/29 01:53:52;;;;;;;1999.90;999.90;;;;;;;19.35;44.11;102593.72;5048453;28;20048;-69
2023/05/29 01:56:18;;;;;;;1999.90;999.90;;;;;;;19.96;43.17;102585.44;5048955;28;20035;-70
2023/05/29 01:58:44;;;;;;;1999.90;999.90;;;;;;;19.68;43.63;102586.00;5047573;28;20049;-70
2023/05/29 02:01:09;;;;;;;1999.90;999.90;;;;;;;19.98;43.68;102587.16;5049100;28;20502;-69
2023/05/29 02:03:35;;;;;;;1999.90;999.90;;;;;;;20.10;42.65;102593.97;5048948;28;20029;-69
2023/05/29 02:06:00;;;;;;;1999.90;999.90;;;;;;;20.51;42.54;102600.13;5047733;28;20056;-69
2023/05/29 02:08:26;;;;;;;1999.90;999.90;;;;;;;18.95;44.36;102610.34;5048661;28;20630;-70
2023/05/29 02:10:52;;;;;;;1999.90;999.90;;;;;;;19.12;45.12;102608.28;5049511;28;20087;-69
2023/05/29 02:13:18;;;;;;;1999.90;999.90;;;;;;;19.99;42.68;102601.31;5048002;28;20025;-70
2023/05/29 02:15:44;;;;;;;1999.90;999.90;;;;;;;19.18;43.70;102606.41;5048061;28;20036;-69
2023/05/29 02:18:14;;;;;;;1999.90;999.90;;;;;;;18.74;45.56;102601.81;5049501;28;20075;-69
2023/05/29 02:20:39;;;;;;;1999.90;999.90;;;;;;;19.83;43.85;102590.13;5047966;28;20503;-69
2023/05/29 02:23:05;;;;;;;1999.90;999.90;;;;;;;19.98;43.06;102591.59;5048505;28;20033;-69
2023/05/29 02:25:30;;;;;;;1999.90;999.90;;;;;;;20.17;42.27;102590.28;5049869;28;20053;-69
2023/05/29 02:27:56;;;;;;;1999.90;999.90;;;;;;;20.47;42.29;102587.81;5047093;28;20102;-69
2023/05/29 02:30:21;;;;;;;1999.90;999.90;;;;;;;20.11;42.01;102594.84;5049817;28;20439;-69
2023/05/29 02:32:47;;;;;;;1999.90;999.90;;;;;;;20.21;42.25;102590.19;5048974;28;20029;-69
2023/05/29 02:35:17;;;;;;;1999.90;999.90;;;;;;;19.77;42.83;102591.13;5047509;28;20036;-70
2023/05/29 02:37:42;;;;;;;1999.90;999.90;;;;;;;20.18;42.48;102583.16;5048002;28;20032;-69
2023/05/29 02:40:08;;;;;;;1999.90;999.90;;;;;;;20.56;41.11;102588.50;5047711;28;20404;-69
2023/05/29 02:42:34;;;;;;;1999.90;999.90;;;;;;;20.27;41.32;102584.75;5048372;28;20067;-70
2023/05/29 02:44:59;;;;;;;1999.90;999.90;;;;;;;20.47;41.16;102587.81;5047611;28;20029;-69
2023/05/29 02:47:25;;;;;;;1999.90;999.90;;;;;;;19.39;44.43;102606.00;5048927;28;20029;-70
2023/05/29 02:49:50;;;;;;;1999.90;999.90;;;;;;;19.34;44.02;102594.59;5047715;28;20029;-69
2023/05/29 02:52:15;;;;;;;1999.90;999.90;;;;;;;19.29;44.40;102602.66;5048282;28;20021;-70
2023/05/29 02:54:41;;;;;;;1999.90;999.90;;;;;;;18.36;45.20;102595.34;5048089;28;20413;-69
2023/05/29 02:57:06;;;;;;;1999.90;999.90;;;;;;;20.43;42.23;102596.78;5047975;28;20049;-69
2023/05/29 02:59:32;;;;;;;1999.90;999.90;;;;;;;19.71;42.85;102601.84;5047927;28;20052;-69
2023/05/29 03:01:57;;;;;;;1999.90;999.90;;;;;;;19.28;43.03;102605.34;5047092;28;20496;-69
2023/05/29 03:04:23;;;;;;;1999.90;999.90;;;;;;;18.99;43.65;102602.31;5049117;28;20025;-69
2023/05/29 03:06:48;;;;;;;1999.90;999.90;;;;;;;19.19;43.47;102610.81;5049028;28;20112;-69
2023/05/29 03:09:16;;;;;;;1999.90;999.90;;;;;;;19.24;43.50;102611.59;5047060;28;20067;-70
2023/05/29 03:11:41;;;;;;;1999.90;999.90;;;;;;;18.11;45.38;102606.28;5047547;28;20435;-71
2023/05/29 03:14:07;;;;;;;1999.90;999.90;;;;;;;19.09;43.65;102602.16;5049221;28;20031;-69
2023/05/29 03:16:32;;;;;;;1999.90;999.90;;;;;;;18.56;44.57;102612.69;5047214;28;20070;-69
2023/05/29 03:18:58;;;;;;;1999.90;999.90;;;;;;;18.78;44.51;102608.81;5047685;28;20021;-69
2023/05/29 03:21:23;;;;;;;1999.90;999.90;;;;;;;19.22;42.81;102605.44;5047960;28;20099;-69
2023/05/29 03:23:49;;;;;;;1999.90;999.90;;;;;;;18.87;44.02;102606.91;5048389;28;20025;-69
2023/05/29 03:26:15;;;;;;;1999.90;999.90;;;;;;;18.86;42.80;102603.38;5048965;28;20362;-69
2023/05/29 03:28:41;;;;;;;1999.90;999.90;;;;;;;19.22;42.42;102605.44;5048397;28;20435;-69
2023/05/29 03:31:08;;;;;;;1999.90;999.90;;;;;;;18.95;43.63;102605.03;5067504;28;20029;-70
2023/05/29 03:33:33;;;;;;;1999.90;999.90;;;;;;;19.21;42.14;102601.06;5051634;28;20439;-69
2023/05/29 03:35:58;;;;;;;1999.90;999.90;;;;;;;19.11;42.28;102600.31;5052575;28;20044;-69
2023/05/29 03:38:24;;;;;;;1999.90;999.90;;;;;;;19.04;42.79;102599.59;5052078;28;20486;-70
2023/05/29 03:40:50;;;;;;;1999.90;999.90;;;;;;;18.97;42.77;102592.63;5052703;28;20486;-69
2023/05/29 03:43:15;;;;;;;1999.90;999.90;;;;;;;19.33;42.30;102603.50;5050933;28;20033;-69
2023/05/29 03:45:40;;;;;;;1999.90;999.90;;;;;;;18.84;42.90;102613.13;5051336;28;20059;-70
2023/05/29 03:48:06;;;;;;;1999.90;999.90;;;;;;;19.47;42.55;102612.03;5052712;28;20484;-70
2023/05/29 03:50:31;;;;;;;1999.90;999.90;;;;;;;19.01;42.22;102610.22;5050780;28;20032;-71
2023/05/29 03:52:57;;;;;;;1999.90;999.90;;;;;;;18.14;44.17;102621.22;5052181;28;20035;-69
2023/05/29 03:55:22;;;;;;;1999.90;999.90;;;;;;;17.83;45.27;102618.06;5052759;28;20033;-69
2023/05/29 03:57:48;;;;;;;1999.90;999.90;;;;;;;18.52;43.57;102613.63;5051308;28;20025;-69
2023/05/29 04:00:14;;;;;;;1999.90;999.90;;;;;;;18.12;43.69;102608.03;5050757;28;20466;-70
2023/05/29 04:02:43;;;;;;;1999.90;999.90;;;;;;;19.17;41.67;102609.97;5052476;28;20808;-70
2023/05/29 04:05:08;;;;;;;1999.90;999.90;;;;;;;18.38;42.46;102609.44;5050106;28;20048;-69
2023/05/29 04:07:38;;;;;;;1999.90;999.90;;;;;;;19.26;41.94;102609.78;5051106;28;20040;-70
2023/05/29 04:10:05;;;;;;;1999.90;999.90;;;;;;;18.23;42.42;102609.63;5050474;28;20040;-69
2023/05/29 04:12:31;;;;;;;1999.90;999.90;;;;;;;18.60;42.67;102619.69;5050155;28;20036;-69
2023/05/29 04:14:57;;;;;;;1999.90;999.90;;;;;;;18.46;43.01;102625.19;5050168;28;20029;-68
2023/05/29 04:17:22;;;;;;;1999.90;999.90;;;;;;;17.80;44.30;102617.22;5050769;28;20504;-68
2023/05/29 04:19:47;;;;;;;1999.90;999.90;;;;;;;19.26;41.63;102623.03;5049642;28;20149;-69
2023/05/29 04:22:13;;;;;;;1999.90;999.90;;;;;;;18.64;42.34;102621.38;5051867;28;20033;-69
2023/05/29 04:24:39;;;;;;;1999.90;999.90;;;;;;;18.47;42.20;102619.88;5052201;28;20100;-69
2023/05/29 04:27:05;;;;;;;1999.90;999.90;;;;;;;19.23;40.53;102623.09;5049400;28;20032;-68
2023/05/29 04:29:32;;;;;;;1999.90;999.90;;;;;;;19.12;41.13;102632.13;5050454;28;20025;-69
2023/05/29 04:31:57;;;;;;;1999.90;999.90;;;;;;;18.47;41.32;102630.47;5051733;28;20100;-69
2023/05/29 04:34:23;;;;;;;1999.90;999.90;;;;;;;18.84;40.77;102638.75;5049459;28;20124;-69
2023/05/29 04:36:49;;;;;;;1999.90;999.90;;;;;;;18.78;41.46;102643.25;5051588;28;20033;-70
2023/05/29 04:39:14;;;;;;;1999.90;999.90;;;;;;;18.85;40.52;102646.69;5050465;28;20036;-69
2023/05/29 04:41:40;;;;;;;1999.90;999.90;;;;;;;18.99;41.08;102634.09;5049756;28;20515;-69
2023/05/29 04:44:07;;;;;;;1999.90;999.90;;;;;;;19.19;40.29;102643.47;5050257;28;20025;-69
2023/05/29 04:46:34;;;;;;;1999.90;999.90;;;;;;;19.61;39.83;102640.06;5049771;28;20431;-69
2023/05/29 04:48:59;;;;;;;1999.90;999.90;;;;;;;20.43;37.57;102633.06;5049701;28;20029;-69
2023/05/29 04:51:25;;;;;;;1999.90;999.90;;;;;;;20.14;38.29;102637.25;5051482;28;20039;-70
2023/05/29 04:53:53;;;;;;;1999.90;999.90;;;;;;;19.86;39.04;102647.59;5050013;28;20441;-69
2023/05/29 04:56:19;;;;;;;1999.90;999.90;;;;;;;20.90;37.78;102643.50;5050182;28;20493;-69
2023/05/29 04:58:44;;;;;;;1999.90;999.90;;;;;;;20.45;37.58;102640.09;5049484;28;20103;-69
2023/05/29 05:01:14;;;;;;;1999.90;999.90;;;;;;;20.22;38.96;102642.38;5050607;28;20020;-69
2023/05/29 05:03:42;;;;;;;1999.90;999.90;;;;;;;21.25;37.17;102647.91;5050192;28;20036;-69
2023/05/29 05:06:09;;;;;;;1999.90;999.90;;;;;;;19.96;38.01;102649.13;5049832;28;20111;-68
2023/05/29 05:08:34;;;;;;;1999.90;999.90;;;;;;;19.86;38.89;102647.59;5050694;28;20566;-69
2023/05/29 05:11:01;;;;;;;1999.90;999.90;;;;;;;19.90;38.99;102660.75;5049534;28;20305;-69
2023/05/29 05:13:26;;;;;;;1999.90;999.90;;;;;;;18.03;41.44;102655.78;5049690;28;20021;-69
2023/05/29 05:15:53;;;;;;;1999.90;999.90;;;;;;;20.03;38.85;102648.13;5048558;28;20431;-69
2023/05/29 05:18:18;;;;;;;1999.90;999.90;;;;;;;20.00;38.68;102656.13;5051219;28;20054;-68
2023/05/29 05:20:44;;;;;;;1999.90;999.90;;;;;;;20.37;37.91;102657.97;5049368;28;20028;-69
2023/05/29 05:23:10;;;;;;;1999.90;999.90;;;;;;;20.19;38.37;102661.06;5049250;28;20020;-69
2023/05/29 05:25:36;;;;;;;1999.90;999.90;;;;;;;20.25;38.32;102660.91;5049512;28;20078;-68
2023/05/29 05:28:05;;;;;;;1999.90;999.90;;;;;;;20.62;37.63;102652.09;5049237;28;20396;-68
2023/05/29 05:30:30;;;;;;;1999.90;999.90;;;;;;;19.94;39.08;102656.25;5048670;28;20029;-69
2023/05/29 05:32:56;;;;;;;1999.90;999.90;;;;;;;19.70;38.62;102661.13;5049081;28;20086;-69
2023/05/29 05:35:21;;;;;;;1999.90;999.90;;;;;;;20.06;38.79;102656.00;5050613;28;20109;-69
2023/05/29 05:37:47;;;;;;;1999.90;999.90;;;;;;;20.06;38.91;102652.44;5049660;28;20048;-69
2023/05/29 05:40:12;;;;;;;1999.90;999.90;;;;;;;20.32;37.79;102665.19;5050604;28;20035;-69
2023/05/29 05:42:38;;;;;;;1999.90;999.90;;;;;;;20.27;38.01;102665.28;5049069;28;20032;-69
2023/05/29 05:45:06;;;;;;;1999.90;999.90;;;;;;;20.45;38.12;102652.50;5048168;28;20044;-70
2023/05/29 05:47:31;;;;;;;1999.90;999.90;;;;;;;20.88;37.52;102655.94;5050376;28;20027;-69
2023/05/29 05:49:57;;;;;;;1999.90;999.90;;;;;;;20.62;37.68;102658.31;5049670;28;20099;-70
2023/05/29 05:52:24;;;;;;;1999.90;999.90;;;;;;;21.16;37.14;102664.13;5048631;28;20108;-70
2023/05/29 05:54:49;;;;;;;1999.90;999.90;;;;;;;19.92;38.77;102668.66;5048669;28;20029;-70
2023/05/29 05:57:15;;;;;;;1999.90;999.90;;;;;;;20.64;37.70;102668.88;5049677;28;20040;-70
2023/05/29 05:59:43;;;;;;;1999.90;999.90;;;;;;;19.01;40.48;102684.41;5048896;28;20064;-71
2023/05/29 06:02:08;;;;;;;1999.90;999.90;;;;;;;19.85;39.20;102689.13;5050128;28;20024;-70
2023/05/29 06:04:34;;;;;;;1999.90;999.90;;;;;;;20.28;38.55;102672.34;5048192;28;20028;-70
2023/05/29 06:06:59;;;;;;;1999.90;999.90;;;;;;;20.31;39.07;102676.72;5048600;28;20267;-69
2023/05/29 06:09:25;;;;;;;1999.90;999.90;;;;;;;20.38;38.87;102680.97;5050230;28;20396;-70
2023/05/29 06:11:51;;;;;;;1999.90;999.90;;;;;;;19.90;39.60;102692.59;5048831;28;20472;-69
2023/05/29 06:14:16;;;;;;;1999.90;999.90;;;;;;;20.61;38.05;102687.56;5048605;28;20021;-69
2023/05/29 06:16:42;;;;;;;1999.90;999.90;;;;;;;21.45;36.68;102676.63;5049475;28;20066;-69
2023/05/29 06:19:08;;;;;;;1999.90;999.90;;;;;;;20.36;38.22;102685.47;5049092;28;20025;-69
2023/05/29 06:21:33;;;;;;;1999.90;999.90;;;;;;;21.12;37.58;102687.22;5048601;28;20059;-69
2023/05/29 06:23:58;;;;;;;1999.90;999.90;;;;;;;23.21;34.20;102674.03;5047727;28;20043;-69
2023/05/29 06:26:27;;;;;;;1999.90;999.90;;;;;;;23.97;32.38;102678.50;5047701;28;20032;-69
2023/05/29 06:28:53;;;;;;;1999.90;999.90;;;;;;;24.11;32.08;102676.19;5064750;28;20029;-69
2023/05/29 06:31:19;;;;;;;1999.90;999.90;;;;;;;24.13;30.71;102679.66;5049633;28;20028;-70
2023/05/29 06:33:45;;;;;;;1999.90;999.90;;;;;;;24.73;29.57;102673.81;5047146;28;20995;-69
2023/05/29 06:36:10;;;;;;;1999.90;999.90;;;;;;;26.06;28.58;102668.94;5049589;28;20108;-69
2023/05/29 06:38:36;;;;;;;1999.90;999.90;;;;;;;24.75;29.47;102677.25;5049590;28;20025;-70
2023/05/29 06:41:02;;;;;;;1999.90;999.90;;;;;;;24.78;29.68;102666.44;5047169;28;20548;-70
2023/05/29 06:43:28;;;;;;;1999.90;999.90;;;;;;;25.27;29.12;102674.19;5049359;28;20031;-69
2023/05/29 06:45:54;;;;;;;1999.90;999.90;;;;;;;23.90;30.20;102677.00;5048056;28;20017;-70
2023/05/29 06:48:19;;;;;;;1999.90;999.90;;;;;;;25.70;28.61;102676.81;5048858;28;20105;-70
2023/05/29 06:50:45;;;;;;;1999.90;999.90;;;;;;;26.41;27.89;102676.22;5047842;28;20021;-71
2023/05/29 06:53:10;;;;;;;1999.90;999.90;;;;;;;26.27;27.49;102682.25;5047055;28;20025;-70
2023/05/29 06:55:36;;;;;;;1999.90;999.90;;;;;;;27.29;26.52;102682.59;5048082;28;20503;-70
2023/05/29 06:58:01;;;;;;;1999.90;999.90;;;;;;;25.70;28.67;102687.50;5049033;28;20021;-70
2023/05/29 07:00:27;;;;;;;1999.90;999.90;;;;;;;25.61;28.17;102693.28;5047269;28;20055;-70
2023/05/29 07:02:53;;;;;;;1999.90;999.90;;;;;;;25.76;28.07;102700.66;5047390;28;20025;-70
2023/05/29 07:05:18;;;;;;;1999.90;999.90;;;;;;;27.09;27.00;102699.72;5052802;28;20024;-70
2023/05/29 07:07:44;;;;;;;1999.90;999.90;;;;;;;27.99;26.47;102703.13;5052609;28;20911;-70
2023/05/29 07:10:10;;;;;;;1999.90;999.90;;;;;;;28.39;24.92;102690.16;5052099;28;20485;-71
2023/05/29 07:12:35;;;;;;;1999.90;999.90;;;;;;;27.19;25.78;102698.31;5053586;28;20055;-71
2023/05/29 07:15:00;;;;;;;1999.90;999.90;;;;;;;27.53;25.23;102701.06;5050599;28;20033;-71
2023/05/29 07:17:26;;;;;;;1999.90;999.90;;;;;;;26.83;26.47;102691.19;5053388;28;20078;-70
2023/05/29 07:19:51;;;;;;;1999.90;999.90;;;;;;;28.54;25.02;102691.97;5052634;28;20029;-69
2023/05/29 07:22:16;;;;;;;1999.90;999.90;;;;;;;28.30;24.53;102690.69;5052596;28;20058;-70
2023/05/29 07:24:42;;;;;;;1999.90;999.90;;;;;;;30.00;23.41;102694.09;5051478;28;20371;-70
2023/05/29 07:27:07;;;;;;;1999.90;999.90;;;;;;;29.74;23.40;102704.66;5051867;28;20025;-70
2023/05/29 07:29:33;;;;;;;1999.90;999.90;;;;;;;28.13;25.09;102708.63;5052256;28;20032;-70
2023/05/29 07:31:58;;;;;;;1999.90;999.90;;;;;;;28.60;23.88;102705.09;5052542;28;20025;-70
2023/05/29 07:34:24;;;;;;;1999.90;999.90;;;;;;;30.13;23.34;102703.16;5052870;28;20376;-69
2023/05/29 07:37:03;;;;;;;1999.90;999.90;;;;;;;29.68;24.15;102696.97;5051553;28;20033;-71
2023/05/29 07:39:29;;;;;;;1999.90;999.90;;;;;;;28.66;25.02;102705.69;5051516;28;20111;-68
2023/05/29 07:41:55;;;;;;;1999.90;999.90;;;;;;;28.50;26.04;102701.19;5051018;28;20477;-68
2023/05/29 07:44:20;;;;;;;1999.90;999.90;;;;;;;28.32;24.83;102704.94;5050928;28;20083;-69
2023/05/29 07:46:46;;;;;;;1999.90;999.90;;;;;;;27.93;25.99;102702.50;5052225;28;20051;-69
2023/05/29 07:49:11;;;;;;;1999.90;999.90;;;;;;;30.54;22.45;102702.31;5052540;28;20079;-69
2023/05/29 07:51:37;;;;;;;1999.90;999.90;;;;;;;29.58;22.50;102713.72;5050970;28;20504;-69
2023/05/29 07:54:03;;;;;;;1999.90;999.90;;;;;;;26.46;26.08;102725.13;5051047;28;20379;-69
2023/05/29 07:56:29;;;;;;;1999.90;999.90;;;;;;;28.44;24.29;102715.00;5050546;28;20028;-69
2023/05/29 07:58:54;;;;;;;1999.90;999.90;;;;;;;27.28;25.87;102725.63;5050610;28;20447;-69
2023/05/29 08:01:21;;;;;;;1999.90;999.90;;;;;;;27.07;25.75;102715.91;5050969;28;20029;-70
2023/05/29 08:03:47;;;;;;;1999.90;999.90;;;;;;;28.22;25.21;102716.19;5051388;28;20155;-68
2023/05/29 08:06:12;;;;;;;1999.90;999.90;;;;;;;28.90;25.17;102706.97;5052164;28;20131;-69
2023/05/29 08:08:38;;;;;;;1999.90;999.90;;;;;;;29.66;23.49;102715.06;5052430;28;20485;-69
2023/05/29 08:11:03;;;;;;;1999.90;999.90;;;;;;;29.61;23.09;102713.50;5051160;28;20037;-69
2023/05/29 08:13:30;;;;;;;1999.90;999.90;;;;;;;28.77;24.18;102711.34;5052254;28;20045;-68
2023/05/29 08:15:55;;;;;;;1999.90;999.90;;;;;;;29.59;23.31;102720.84;5049631;28;20105;-68
2023/05/29 08:18:21;;;;;;;1999.90;999.90;;;;;;;28.84;24.21;102718.09;5050222;28;20059;-69
2023/05/29 08:20:47;;;;;;;1999.90;999.90;;;;;;;28.90;24.28;102717.72;5050192;28;20025;-68
2023/05/29 08:23:12;;;;;;;1999.90;999.90;;;;;;;29.79;23.26;102718.72;5051924;28;20021;-68
2023/05/29 08:25:38;;;;;;;1999.90;999.90;;;;;;;29.49;23.70;102724.19;5051291;28;20032;-69
2023/05/29 08:28:03;;;;;;;1999.90;999.90;;;;;;;27.50;25.19;102728.94;5066839;28;20036;-68
2023/05/29 08:30:29;;;;;;;1999.90;999.90;;;;;;;28.63;24.04;102730.94;5050725;28;20143;-68
2023/05/29 08:32:54;;;;;;;1999.90;999.90;;;;;;;29.10;24.25;102727.31;5049532;28;20032;-68
2023/05/29 08:35:20;;;;;;;1999.90;999.90;;;;;;;29.77;23.44;102728.72;5049926;28;20017;-68
2023/05/29 08:37:45;;;;;;;1999.90;999.90;;;;;;;28.43;23.87;102729.38;5049699;28;20049;-69
2023/05/29 08:40:12;;;;;;;1999.90;999.90;;;;;;;28.78;24.22;102723.81;5049564;28;20384;-68
2023/05/29 08:42:46;;;;;;;1999.90;999.90;;;;;;;31.39;20.95;102723.59;5049926;28;20025;-68
2023/05/29 08:45:14;;;;;;;1999.90;999.90;;;;;;;29.92;22.21;102722.41;5050260;28;20013;-69
2023/05/29 08:47:44;;;;;;;1999.90;999.90;;;;;;;29.38;22.60;102735.59;5049722;28;20059;-68
2023/05/29 08:50:10;;;;;;;1999.90;999.90;;;;;;;29.15;22.73;102732.41;5066881;28;20033;-68
2023/05/29 08:52:37;;;;;;;1999.90;999.90;;;;;;;28.65;23.46;102739.81;5050200;28;20032;-69
2023/05/29 08:55:03;;;;;;;1999.90;999.90;;;;;;;28.89;23.61;102740.22;5048800;28;20036;-68
2023/05/29 08:57:30;;;;;;;1999.90;999.90;;;;;;;28.15;23.41;102752.44;5051278;28;20027;-68
2023/05/29 08:59:56;;;;;;;1999.90;999.90;;;;;;;29.17;23.09;102743.09;5050207;28;20084;-69
2023/05/29 09:02:22;;;;;;;1999.90;999.90;;;;;;;27.92;23.91;102746.44;5049913;28;20544;-70
2023/05/29 09:04:52;;;;;;;1999.90;999.90;;;;;;;28.37;23.31;102749.41;5049108;28;20116;-68
2023/05/29 09:07:19;;;;;;;1999.90;999.90;;;;;;;29.35;23.47;102743.88;5049259;28;20021;-69
2023/05/29 09:09:45;;;;;;;1999.90;999.90;;;;;;;27.38;24.30;102751.97;5049292;28;20381;-68
2023/05/29 09:12:10;;;;;;;1999.90;999.90;;;;;;;28.01;23.63;102754.97;5049867;28;20074;-69
2023/05/29 09:14:42;;;;;;;1999.90;999.90;;;;;;;28.55;22.78;102752.88;5050039;28;20021;-68
2023/05/29 09:17:09;;;;;;;1999.90;999.90;;;;;;;29.27;23.76;102750.56;5049580;28;20025;-68
2023/05/29 09:19:36;;;;;;;1999.90;999.90;;;;;;;30.21;22.09;102743.97;5049621;28;20318;-68
2023/05/29 09:22:05;;;;;;;1999.90;999.90;;;;;;;31.15;21.30;102747.78;5049590;28;20043;-69
2023/05/29 09:24:36;;;;;;;1999.90;999.90;;;;;;;28.20;23.88;102757.53;5050739;28;20101;-68
2023/05/29 09:27:04;;;;;;;1999.90;999.90;;;;;;;27.00;24.14;102761.91;5048209;28;20089;-68
2023/05/29 09:29:32;;;;;;;1999.90;999.90;;;;;;;28.12;23.27;102757.94;5050035;28;20056;-68
2023/05/29 09:31:58;;;;;;;1999.90;999.90;;;;;;;29.01;23.40;102753.91;5048664;28;20444;-68
2023/05/29 09:34:27;;;;;;;1999.90;999.90;;;;;;;29.56;23.41;102742.56;5050458;28;20040;-68
2023/05/29 09:36:53;;;;;;;1999.90;999.90;;;;;;;29.29;22.90;102739.69;5048007;28;20061;-69
2023/05/29 09:39:18;;;;;;;1999.90;999.90;;;;;;;29.67;22.94;102744.59;5049394;28;20025;-68
2023/05/29 09:41:45;;;;;;;1999.90;999.90;;;;;;;29.24;22.95;102740.00;5048387;28;20025;-69
2023/05/29 09:44:13;;;;;;;1999.90;999.90;;;;;;;29.90;21.61;102743.19;5050134;28;20029;-69
2023/05/29 09:46:42;;;;;;;1999.90;999.90;;;;;;;27.65;25.28;102742.53;5049010;28;20032;-68
2023/05/29 09:49:12;;;;;;;1999.90;999.90;;;;;;;30.60;22.17;102734.25;5048031;28;20082;-68
2023/05/29 09:51:39;;;;;;;1999.90;999.90;;;;;;;30.01;20.99;102714.72;5049348;28;20028;-68
2023/05/29 09:54:14;;;;;;;1999.90;999.90;;;;;;;29.26;22.15;102718.34;5049699;28;20044;-68
2023/05/29 09:56:42;;;;;;;1999.90;999.90;;;;;;;29.90;22.04;102727.03;5049314;28;20029;-67
2023/05/29 09:59:10;;;;;;;1999.90;999.90;;;;;;;28.65;23.30;102731.75;5050087;28;20096;-68
2023/05/29 10:01:39;;;;;;;1999.90;999.90;;;;;;;30.86;22.52;102728.97;5050561;28;20048;-69
2023/05/29 10:04:04;;;;;;;1999.90;999.90;;;;;;;30.42;21.36;102730.06;5048747;28;20151;-68
2023/05/29 10:06:30;;;;;;;1999.90;999.90;;;;;;;29.39;22.41;102721.19;5048799;28;20089;-68
2023/05/29 10:08:58;;;;;;;1999.90;999.90;;;;;;;30.76;21.69;102727.84;5048325;28;20029;-68
2023/05/29 10:11:27;;;;;;;1999.90;999.90;;;;;;;30.37;21.57;102732.19;5047891;28;20060;-69
2023/05/29 10:13:53;;;;;;;1999.90;999.90;;;;;;;29.17;23.01;102730.53;5049369;28;20056;-68
2023/05/29 10:16:23;;;;;;;1999.90;999.90;;;;;;;30.48;20.97;102726.97;5048586;28;20029;-69
2023/05/29 10:19:01;;;;;;;1999.90;999.90;;;;;;;31.09;20.52;102734.66;5048957;28;20614;-69
2023/05/29 10:21:28;;;;;;;1999.90;999.90;;;;;;;29.91;22.37;102734.16;5048437;28;20029;-68
2023/05/29 10:23:54;;;;;;;1999.90;999.90;;;;;;;28.12;24.28;102741.81;5049352;28;20033;-68
2023/05/29 10:26:32;;;;;;;1999.90;999.90;;;;;;;29.72;22.55;102731.72;5049018;28;20086;-68
2023/05/29 10:29:24;;;;;;;1999.90;999.90;;;;;;;29.80;21.92;102742.03;5049627;28;20478;-68
2023/05/29 10:31:58;;;;;;;1999.90;999.90;;;;;;;29.61;21.79;102734.22;5048642;28;20075;-68
2023/05/29 10:34:46;;;;;;;1999.90;999.90;;;;;;;28.46;23.59;102731.88;5048137;28;20032;-69
2023/05/29 10:37:40;;;;;;;1999.90;999.90;;;;;;;28.38;22.89;102726.94;5048302;28;20029;-68
2023/05/29 10:40:11;;;;;;;1999.90;999.90;;;;;;;31.04;21.84;102720.66;5047524;28;20409;-68
2023/05/29 10:42:48;;;;;;;1999.90;999.90;;;;;;;30.17;22.56;102719.97;5048302;28;20389;-68
2023/05/29 10:45:29;;;;;;;1999.90;999.90;;;;;;;29.16;23.56;102723.41;5047437;28;20091;-69